»·PEaware :: N323FS KSMO-KSMO

N323FS :: KSMO-KSMO

FLIGHT INFORMATION

Flight Status: Arrived
Operator: Privately registered:
United States
More flights under this callsign
Pilot: Scott B. (29348)
Aircraft: CESSNA 172 SKYHAWK
(C172)
More flights by this aircraft type
Origin: KSMO Santa Monica Mun
United States
Destination: KSMO Santa Monica Mun
United States
More flights between these airports :: More routes between these airports
Route: +
File this flight plan on PilotEdge
Remarks:
Altitude:
(Current/Filed)
0ft
Speed:
(Current/Filed)
0kts
Departed: 18-Jun-20 11:40 AM
Arrived: 18-Jun-20 12:48 PM
Distance/Time
Traveled:
0nm/1:08
Distance/Time
To Go:
Arrived

Flight Plot

Page will automatically refresh every two minutes.


Map Options




Map Legend


Flown Route
Filed Route
Departure Airport
Arrival Airport
Navaid (VOR, NDB)
Fix

Horizontal Profiles

Position Reports

Time Latitude Longitude Heading Altitude Ground
Speed
18-Jun-20 10:52 34.017595 -118.445208 330 177ft 0kts
18-Jun-20 10:53 34.017648 -118.445230 352 177ft 4kts
18-Jun-20 10:54 34.017840 -118.445149 27 177ft 0kts
18-Jun-20 10:55 34.017840 -118.445149 27 177ft 0kts
18-Jun-20 10:56 34.019577 -118.445643 292 177ft 12kts
18-Jun-20 10:57 34.018853 -118.446844 309 177ft 0kts
18-Jun-20 10:58 34.018853 -118.446844 309 177ft 0kts
18-Jun-20 10:59 34.018853 -118.446844 309 177ft 0kts
18-Jun-20 11:00 34.018853 -118.446844 309 177ft 0kts
18-Jun-20 11:01 34.018853 -118.446844 309 177ft 0kts
18-Jun-20 11:02 34.018853 -118.446844 309 177ft 0kts
18-Jun-20 11:04 34.018853 -118.446844 309 177ft 0kts
18-Jun-20 11:05 34.018853 -118.446844 309 177ft 0kts
18-Jun-20 11:06 34.018853 -118.446844 309 177ft 0kts
18-Jun-20 11:07 34.018853 -118.446844 309 177ft 0kts
18-Jun-20 11:08 34.018853 -118.446844 309 177ft 0kts
18-Jun-20 11:09 34.018853 -118.446844 309 177ft 0kts
18-Jun-20 11:10 34.018853 -118.446844 309 177ft 0kts
18-Jun-20 11:11 34.018853 -118.446844 309 177ft 0kts
18-Jun-20 11:12 34.018853 -118.446844 309 177ft 0kts
18-Jun-20 11:13 34.018853 -118.446844 309 177ft 0kts
18-Jun-20 11:14 34.018853 -118.446844 309 177ft 0kts
18-Jun-20 11:15 34.018853 -118.446844 309 177ft 0kts
18-Jun-20 11:16 34.018853 -118.446844 309 177ft 0kts
18-Jun-20 11:17 34.018853 -118.446844 309 177ft 0kts
18-Jun-20 11:18 34.018853 -118.446844 309 177ft 0kts
18-Jun-20 11:18 34.018853 -118.446844 309 177ft 0kts
18-Jun-20 11:20 34.018853 -118.446844 309 177ft 0kts
18-Jun-20 11:21 38.010884 -77.971308 258 481ft 0kts
18-Jun-20 11:21 38.010884 -77.971308 258 481ft 0kts
18-Jun-20 11:23 38.010884 -77.971308 258 481ft 0kts
18-Jun-20 11:23 38.010884 -77.971308 258 481ft 0kts
18-Jun-20 11:24 38.010884 -77.971308 258 481ft 0kts
18-Jun-20 11:26 38.010884 -77.971308 258 481ft 0kts
18-Jun-20 11:26 38.010884 -77.971308 258 481ft 0kts
18-Jun-20 11:27 38.010884 -77.971308 258 481ft 0kts
18-Jun-20 11:28 38.010884 -77.971308 258 481ft 0kts
18-Jun-20 11:29 38.010884 -77.971308 258 481ft 0kts
18-Jun-20 11:30 38.010884 -77.971308 258 481ft 0kts
18-Jun-20 11:31 38.010884 -77.971308 258 481ft 0kts
18-Jun-20 11:32 38.010884 -77.971308 258 481ft 0kts
18-Jun-20 11:33 38.010884 -77.971308 258 481ft 0kts
18-Jun-20 11:34 38.010884 -77.971308 258 481ft 0kts
18-Jun-20 11:35 38.010884 -77.971308 258 481ft 0kts
18-Jun-20 11:36 38.010721 -77.971443 171 482ft 3kts
18-Jun-20 11:37 38.010851 -77.966964 81 484ft 26kts
18-Jun-20 11:38 38.011197 -77.962979 124 483ft 0kts
18-Jun-20 11:39 38.009420 -77.974106 260 557ft 86kts
18-Jun-20 11:40 37.998199 -77.994085 154 1254ft 96kts
18-Jun-20 11:41 37.995804 -77.960994 97 1991ft 102kts
18-Jun-20 11:42 37.994543 -77.952616 115 2134ft 103kts
18-Jun-20 11:43 37.986102 -77.942940 187 2435ft 95kts
18-Jun-20 11:44 37.962174 -77.953822 177 3088ft 95kts
18-Jun-20 11:45 37.943929 -77.928477 144 3536ft 101kts
18-Jun-20 11:46 37.936721 -77.896007 82 3656ft 109kts
18-Jun-20 11:47 37.952364 -77.868245 0 2820ft 116kts
18-Jun-20 11:48 37.972635 -77.886372 261 1732ft 112kts
18-Jun-20 11:49 37.953254 -77.900842 170 546ft 89kts
18-Jun-20 11:50 37.942639 -77.898989 351 377ft 13kts
18-Jun-20 11:51 37.957693 -77.901977 12 744ft 78kts
18-Jun-20 11:52 37.964306 -77.882168 140 1465ft 82kts
18-Jun-20 11:53 37.952778 -77.857861 131 2303ft 80kts
18-Jun-20 11:54 37.939160 -77.832617 128 2676ft 96kts
18-Jun-20 11:55 37.922733 -77.804297 133 2783ft 102kts
18-Jun-20 11:56 37.903993 -77.774915 126 2549ft 109kts
18-Jun-20 11:57 37.885351 -77.747469 122 2398ft 107kts
18-Jun-20 11:58 37.870226 -77.716851 121 2385ft 99kts
18-Jun-20 11:59 37.855193 -77.689208 129 2504ft 93kts
18-Jun-20 12:00 37.842768 -77.660835 110 2579ft 96kts
18-Jun-20 12:01 37.836643 -77.628170 112 2640ft 96kts
18-Jun-20 12:02 37.823772 -77.598919 168 2580ft 98kts
18-Jun-20 12:03 37.802112 -77.615966 220 2615ft 98kts
18-Jun-20 12:04 37.776606 -77.611788 147 2510ft 112kts
18-Jun-20 12:05 37.782701 -77.575720 78 2411ft 120kts
18-Jun-20 12:06 37.781014 -77.537057 109 1800ft 107kts
18-Jun-20 12:07 37.769590 -77.503703 131 1074ft 98kts
18-Jun-20 12:08 37.754770 -77.476531 116 962ft 95kts
18-Jun-20 12:09 37.736413 -77.456902 150 766ft 83kts
18-Jun-20 12:10 37.721045 -77.445611 149 356ft 68kts
18-Jun-20 12:11 37.705316 -77.434005 149 277ft 92kts
18-Jun-20 12:12 37.693203 -77.411599 44 985ft 104kts
18-Jun-20 12:13 37.718810 -77.422796 329 1766ft 101kts
18-Jun-20 12:14 37.738653 -77.448460 296 2435ft 106kts
18-Jun-20 12:15 37.757775 -77.478664 311 2639ft 125kts
18-Jun-20 12:16 37.782952 -77.508857 317 2443ft 126kts
18-Jun-20 12:17 37.809448 -77.536742 303 2267ft 124kts
18-Jun-20 12:18 37.827084 -77.571440 312 2306ft 112kts
18-Jun-20 12:19 37.848991 -77.597379 312 2478ft 109kts
18-Jun-20 12:20 37.869545 -77.625274 295 2625ft 111kts
18-Jun-20 12:21 37.887695 -77.658408 310 2640ft 120kts
18-Jun-20 12:22 37.910260 -77.689929 311 2608ft 124kts
18-Jun-20 12:23 37.930065 -77.725427 299 2553ft 125kts
18-Jun-20 12:24 37.940984 -77.766304 282 2533ft 123kts
18-Jun-20 12:25 37.945351 -77.808738 281 2495ft 123kts
18-Jun-20 12:26 37.944579 -77.850823 249 2452ft 124kts
18-Jun-20 12:27 37.941316 -77.891009 294 2420ft 113kts
18-Jun-20 12:28 37.962827 -77.918202 319 1643ft 110kts
18-Jun-20 12:29 37.985868 -77.940056 319 1464ft 93kts
18-Jun-20 12:30 37.997948 -77.964123 260 1483ft 97kts
18-Jun-20 12:31 37.998741 -77.991604 347 1045ft 81kts
18-Jun-20 12:32 38.009438 -77.973556 80 475ft 57kts
18-Jun-20 12:33 38.011027 -77.965249 259 486ft 11kts
18-Jun-20 12:34 38.011107 -77.966723 172 485ft 0kts
18-Jun-20 12:35 38.011107 -77.966723 172 485ft 0kts
18-Jun-20 12:36 38.011107 -77.966723 172 485ft 0kts
18-Jun-20 12:37 38.011107 -77.966723 172 485ft 0kts
18-Jun-20 12:38 38.011107 -77.966723 172 485ft 0kts
18-Jun-20 12:39 38.011107 -77.966723 172 485ft 0kts
18-Jun-20 12:40 38.011107 -77.966723 172 485ft 0kts
18-Jun-20 12:41 38.011107 -77.966723 172 485ft 0kts
18-Jun-20 12:42 38.011107 -77.966723 172 485ft 0kts
18-Jun-20 12:43 38.011107 -77.966723 172 485ft 0kts
18-Jun-20 12:44 38.011107 -77.966723 172 485ft 0kts
18-Jun-20 12:45 38.011107 -77.966723 172 485ft 0kts
18-Jun-20 12:46 38.011107 -77.966723 172 485ft 0kts
18-Jun-20 12:47 34.017595 -118.445208 330 177ft 0kts
18-Jun-20 12:48 34.017595 -118.445208 330 177ft 0kts
18-Jun-20 12:49 34.017595 -118.445208 330 177ft 0kts
18-Jun-20 12:50 34.017595 -118.445208 330 177ft 0kts
18-Jun-20 12:51 34.017595 -118.445208 330 177ft 0kts
18-Jun-20 12:52 34.017595 -118.445208 330 177ft 0kts
18-Jun-20 12:53 34.017595 -118.445208 330 177ft 0kts
18-Jun-20 12:54 34.017595 -118.445208 330 177ft 0kts
18-Jun-20 12:55 34.017595 -118.445208 330 177ft 0kts
18-Jun-20 12:56 34.017595 -118.445208 330 177ft 0kts
18-Jun-20 12:57 34.017595 -118.445208 330 177ft 0kts
18-Jun-20 12:59 34.017595 -118.445208 330 177ft 0kts
18-Jun-20 13:01 34.017595 -118.445208 330 177ft 0kts
18-Jun-20 13:02 34.017595 -118.445208 330 177ft 0kts
18-Jun-20 13:03 34.017595 -118.445208 330 177ft 0kts

Navigation Log

Ident Type
Flight plan parsing failed, navigation log unavailable